CDT,Max TemperatureF,Mean TemperatureF,Min TemperatureF,Max Dew PointF,MeanDew PointF,Min DewpointF,Max Humidity, Mean Humidity, Min Humidity, Max Sea Level PressureIn, Mean Sea Level PressureIn, Min Sea Level PressureIn, Max VisibilityMiles, Mean VisibilityMiles, Min VisibilityMiles, Max Wind SpeedMPH, Mean Wind SpeedMPH, Max Gust SpeedMPH,PrecipitationIn, CloudCover, Events, WindDirDegrees
2012-10-1,64,62,60,63,60,57,100,93,87,29.73,29.60,29.49,10,5,2,12,8,17,0.11,8,Rain,299
2012-10-2,75,66,57,60,57,54,97,77,48,29.98,29.86,29.74,10,8,4,8,4,,0.00,1,,302
2012-10-3,82,69,57,62,58,55,100,76,42,30.12,30.05,29.99,10,8,2,9,2,16,0.01,2,,158
2012-10-4,84,74,63,66,62,59,93,75,43,30.24,30.17,30.12,10,8,3,6,2,,0.00,1,Rain,140
2012-10-5,86,72,61,63,61,57,93,71,38,30.16,30.08,29.99,10,9,6,7,2,,0.00,0,,188
2012-10-6,69,60,53,63,55,50,96,82,68,30.13,30.06,29.99,10,10,5,9,5,17,0.00,7,,342
2012-10-7,62,56,50,50,45,42,93,72,50,30.21,30.15,30.11,10,10,10,10,6,17,0.00,6,,359
2012-10-8,66,58,48,48,46,45,93,71,52,30.22,30.15,30.11,10,10,10,8,4,,0.00,5,,1
2012-10-9,73,59,45,54,48,43,93,70,41,30.15,30.09,30.01,10,10,10,7,1,,0.00,0,,202
2012-10-10,81,70,61,62,58,54,84,72,54,30.19,30.13,30.07,10,10,10,8,3,,0.00,4,,354
2012-10-11,84,70,57,66,61,56,93,75,49,30.24,30.19,30.15,10,10,7,9,3,,0.00,1,,127
2012-10-12,84,72,60,65,62,60,100,81,47,30.27,30.21,30.17,10,6,1,5,1,,0.00,0,,130
2012-10-13,84,72,60,66,61,59,100,84,46,30.22,30.17,30.06,10,5,0,15,2,21,0.00,0,Fog,169
2012-10-14,82,76,71,71,69,68,94,82,60,30.15,30.04,29.95,10,8,4,14,10,21,0.00,4,Rain-Thunderstorm,188
2012-10-15,80,69,57,67,55,47,97,67,32,30.05,30.00,29.94,10,10,7,8,3,,0.01,0,,348
2012-10-16,79,66,53,56,53,48,93,68,36,30.00,29.92,29.84,10,10,10,10,3,,0.00,0,,150
2012-10-17,82,69,57,69,60,52,85,73,52,29.84,29.75,29.65,10,10,10,17,8,25,0.00,3,Thunderstorm,165
2012-10-18,77,66,54,72,53,30,94,65,19,29.91,29.81,29.68,10,8,0,23,9,30,0.85,2,Fog-Rain,313
2012-10-19,75,62,51,46,39,31,77,50,21,29.90,29.87,29.81,10,10,7,21,5,30,0.00,1,,268
2012-10-20,80,62,46,51,44,35,89,58,22,30.00,29.94,29.89,10,10,10,6,1,,0.00,0,,230
2012-10-21,84,68,53,54,51,48,90,61,31,30.09,30.04,29.97,10,10,10,12,3,,0.00,2,,147
2012-10-22,82,68,54,56,53,49,93,64,31,30.15,30.08,30.03,10,10,10,10,3,,0.00,0,,138
2012-10-23,82,68,55,63,59,54,100,83,47,30.13,30.07,30.01,10,6,0,9,2,,0.00,2,Fog,163
2012-10-24,82,72,62,65,62,58,100,82,42,30.13,30.06,29.99,10,6,0,8,3,,0.00,3,Fog,128
2012-10-25,82,72,61,66,62,58,100,81,46,30.04,29.98,29.93,10,7,0,10,2,,0.01,2,Fog,147
2012-10-26,70,58,46,61,55,44,93,83,65,30.12,30.02,29.94,10,9,5,18,6,25,0.00,5,Rain,332
2012-10-27,60,53,46,44,40,37,90,71,49,30.12,30.07,30.01,10,10,10,10,8,21,0.00,6,,351
2012-10-28,61,50,39,38,35,30,89,63,33,30.17,30.10,30.06,10,10,10,14,6,24,0.00,0,,327
2012-10-29,60,48,36,36,32,26,89,60,30,30.22,30.15,30.09,10,10,10,17,4,29,0.00,0,,325
2012-10-30,66,52,39,41,35,31,73,55,32,30.10,30.03,29.96,10,10,7,15,5,21,0.00,0,,303
2012-10-31,75,60,46,56,48,39,86,64,45,30.01,29.97,29.91,10,10,10,14,3,,0.00,3,,286